Nearby METAR Reports

 

KSJC - San Jose, California, USA
Distance from station: NE 14km
Actualización: 17/10/2017 01:53
Despejado
Despejado
 Viento del calm
Viento: Calma
Temperatura: 16°C
Rocío: 4°C
Humedad: 45%
Barómetro: 1018.3 hPa
Clouds: Despejado
Visibility: 16 km
2017/10/17 08:53 KSJC 170853Z AUTO 00000KT 10SM CLR 16/04 A3007 RMK AO2 SLP181 T01560039 53001
KNUQ - Moffett Nas/Mtn, California, USA
Distance from station: N 14km
Actualización: 17/10/2017 01:56
Smoke, Despejado
Smoke, Despejado
 Viento del calm
Viento: Calma
Temperatura: 15°C
Rocío: 5°C
Humedad: 51%
Barómetro: 1018.3 hPa
Resumen: Smoke
Clouds: Despejado
Visibility: 16 km
2017/10/17 08:56 KNUQ 170856Z AUTO 00000KT 10SM FU CLR 15/05 A3007 RMK AO2 SLP186 T01500050 53002
 
KPAO - Palo Alto, California, USA
Distance from station: NNO 23km
Actualización: 16/10/2017 20:47
NOT Current
Despejado
Despejado
 Viento del calm
Viento: Calma
Temperatura: 18°C
Rocío: 8°C
Humedad: 52%
Barómetro: 1017.6 hPa
Clouds: Despejado
Visibility: 16 km
2017/10/17 03:47 KPAO 170347Z 00000KT 10SM SKC 18/08 A3005 RMK LAST
KRHV - San Jose/Reid, California, USA
Distance from station: ENE 19km
Actualización: 16/10/2017 21:47
NOT Current
Parcialmente nuboso
Parcialmente nuboso
 Viento del varies
Viento: varies 7 km/h
Temperatura: 19°C
Rocío: 6°C
Humedad: 43%
Barómetro: 1019.3 hPa
Clouds: Parcialmente nuboso
Visibility: 16 km
Cloud details: Parcialmente nuboso 5486 m
2017/10/17 04:47 KRHV 170447Z VRB04KT 10SM SCT180 19/06 A3010
 
KOAK - Oakland, California, USA
Distance from station: NNO 50km
Actualización: 17/10/2017 01:53
Parcialmente nuboso
Parcialmente nuboso
 Viento del calm
Viento: Calma
Temperatura: 16°C
Rocío: 5°C
Humedad: 48%
Barómetro: 1018.3 hPa
Clouds: Parcialmente nuboso
Visibility: 16 km
Cloud details: Few Clouds 427 m
Parcialmente nuboso 6096 m
2017/10/17 08:53 KOAK 170853Z 00000KT 10SM FEW014 SCT200 16/05 A3007 RMK AO2 SLP182 T01560050 51002
KSQL - San Carlos Airpo, California, USA
Distance from station: NO 34km
Actualización: 17/10/2017 02:15
Despejado
Despejado
 Viento del calm
Viento: Calma
Temperatura: 15°C
Rocío: 3°C
Humedad: 45%
Barómetro: 1018.6 hPa
Clouds: Despejado
Visibility: 16 km
2017/10/17 09:15 KSQL 170915Z AUTO 00000KT 10SM CLR 15/03 A3008 RMK AO2
 
KSFO - San Francisco, California, USA
Distance from station: NO 49km
Actualización: 17/10/2017 01:56
Despejado
Despejado
 Viento del calm
Viento: Calma
Temperatura: 17°C
Rocío: 3°C
Humedad: 39%
Barómetro: 1018.3 hPa
Clouds: Despejado
Visibility: 16 km
2017/10/17 08:56 KSFO 170856Z 00000KT 10SM CLR 17/03 A3007 RMK AO2 SLP181 T01670028 51002
KE16 - San Martin, California, USA
Distance from station: ESE 43km
Actualización: 17/10/2017 02:15
Despejado
Despejado
 Viento del calm
Viento: Calma
Temperatura: 12°C
Rocío: 2°C
Humedad: 51%
Barómetro: 1019.3 hPa
Clouds: Despejado
Visibility: 16 km
2017/10/17 09:15 KE16 170915Z AUTO 00000KT 10SM CLR 12/02 A3010 RMK AO2
 
KWVI - Watsonville, California, USA
Distance from station: SSE 44km
Actualización: 12/10/2017 09:53
NOT Current
Despejado
Despejado
 Viento del E
Viento: E 6 km/h
Temperatura: 14°C
Rocío: 4°C
Humedad: 51%
Barómetro: 1019.6 hPa
Clouds: Despejado
Visibility: 13 km
2017/10/12 16:53 KWVI 121653Z AUTO 09003KT 8SM CLR 14/04 A3011 RMK AO2 SLP194 T01440039 $
KHAF - Half Moon Bay, California, USA
Distance from station: ONO 50km
Actualización: 17/10/2017 02:15
Haze, Despejado
Haze, Despejado
 Viento del calm
Viento: Calma
Temperatura: 10°C
Rocío: 4°C
Humedad: 67%
Barómetro: 1017.3 hPa
Resumen: Haze
Clouds: Despejado
Visibility: 6 km
2017/10/17 09:15 KHAF 170915Z AUTO 00000KT 4SM HZ CLR 10/04 A3004 RMK AO2
 
KHWD - Hayward, California, USA
Distance from station: N 44km
Actualización: 17/10/2017 01:54
Despejado
Despejado
 Viento del E
Viento: E 9 km/h
Temperatura: 16°C
Rocío: -2°C
Humedad: 29%
Barómetro: 1017.9 hPa
Clouds: Despejado
Visibility: 16 km
2017/10/17 08:54 KHWD 170854Z AUTO 08005KT 10SM CLR 16/M02 A3006 RMK AO2 SLP189 T01611022 51001
KLVK - Livermore, California, USA
Distance from station: NNE 51km
Actualización: 17/10/2017 01:53
Smoke, Despejado
Smoke, Despejado
 Viento del calm
Viento: Calma
Temperatura: 12°C
Rocío: -1°C
Humedad: 41%
Barómetro: 1018.6 hPa
Resumen: Smoke
Clouds: Despejado
Visibility: 16 km
2017/10/17 08:53 KLVK 170853Z AUTO 00000KT 10SM FU CLR 12/M01 A3008 RMK AO2 SLP184 T01171006 53003